sensor_id;sensor_type;location;lat;lon;timestamp;pressure;altitude;pressure_sealevel;temperature;humidity
14204;BME280;7185;51.854;6.622;2023-05-23T00:01:42;101393.25;;;19.41;69.74
14204;BME280;7185;51.854;6.622;2023-05-23T00:04:14;101393.59;;;19.54;69.40
14204;BME280;7185;51.854;6.622;2023-05-23T00:06:49;101399.16;;;19.68;68.86
14204;BME280;7185;51.854;6.622;2023-05-23T00:09:20;101393.31;;;19.39;69.73
14204;BME280;7185;51.854;6.622;2023-05-23T00:11:52;101385.06;;;19.46;69.49
14204;BME280;7185;51.854;6.622;2023-05-23T00:14:24;101393.63;;;19.32;70.62
14204;BME280;7185;51.854;6.622;2023-05-23T00:16:56;101395.66;;;19.04;71.68
14204;BME280;7185;51.854;6.622;2023-05-23T00:19:28;101390.53;;;19.00;71.88
14204;BME280;7185;51.854;6.622;2023-05-23T00:22:02;101389.25;;;19.31;71.63
14204;BME280;7185;51.854;6.622;2023-05-23T00:24:34;101394.13;;;19.41;70.69
14204;BME280;7185;51.854;6.622;2023-05-23T00:27:05;101391.66;;;19.15;71.59
14204;BME280;7185;51.854;6.622;2023-05-23T00:29:41;101384.59;;;19.15;71.64
14204;BME280;7185;51.854;6.622;2023-05-23T00:32:13;101395.59;;;19.06;72.03
14204;BME280;7185;51.854;6.622;2023-05-23T00:34:48;101397.41;;;18.82;73.01
14204;BME280;7185;51.854;6.622;2023-05-23T00:37:21;101397.34;;;18.83;73.19
14204;BME280;7185;51.854;6.622;2023-05-23T00:39:55;101394.56;;;19.10;72.22
14204;BME280;7185;51.854;6.622;2023-05-23T00:42:35;101393.28;;;18.74;73.78
14204;BME280;7185;51.854;6.622;2023-05-23T00:45:10;101392.78;;;18.87;73.81
14204;BME280;7185;51.854;6.622;2023-05-23T00:47:43;101398.69;;;18.71;74.50
14204;BME280;7185;51.854;6.622;2023-05-23T00:50:15;101396.88;;;19.18;72.47
14204;BME280;7185;51.854;6.622;2023-05-23T00:52:49;101395.50;;;18.85;73.81
14204;BME280;7185;51.854;6.622;2023-05-23T00:55:21;101398.38;;;19.03;73.06
14204;BME280;7185;51.854;6.622;2023-05-23T00:57:54;101402.06;;;18.76;74.02
14204;BME280;7185;51.854;6.622;2023-05-23T01:00:26;101399.81;;;18.88;74.08
14204;BME280;7185;51.854;6.622;2023-05-23T01:02:58;101405.97;;;18.68;74.44
14204;BME280;7185;51.854;6.622;2023-05-23T01:05:30;101411.44;;;18.63;75.06
14204;BME280;7185;51.854;6.622;2023-05-23T01:08:03;101405.03;;;18.91;73.83
14204;BME280;7185;51.854;6.622;2023-05-23T01:10:35;101400.56;;;19.14;73.01
14204;BME280;7185;51.854;6.622;2023-05-23T01:13:16;101398.81;;;18.92;73.84
14204;BME280;7185;51.854;6.622;2023-05-23T01:16:03;101400.22;;;19.01;73.97
14204;BME280;7185;51.854;6.622;2023-05-23T01:18:39;101413.34;;;18.82;74.38
14204;BME280;7185;51.854;6.622;2023-05-23T01:21:16;101414.03;;;18.87;74.53
14204;BME280;7185;51.854;6.622;2023-05-23T01:24:25;101416.25;;;18.75;75.08
14204;BME280;7185;51.854;6.622;2023-05-23T01:27:08;101424.16;;;18.55;75.69
14204;BME280;7185;51.854;6.622;2023-05-23T01:29:48;101423.09;;;18.59;76.10
14204;BME280;7185;51.854;6.622;2023-05-23T01:32:24;101423.00;;;18.62;75.90
14204;BME280;7185;51.854;6.622;2023-05-23T01:34:57;101426.47;;;18.64;75.70
14204;BME280;7185;51.854;6.622;2023-05-23T01:37:30;101425.41;;;18.68;75.88
14204;BME280;7185;51.854;6.622;2023-05-23T01:40:01;101428.53;;;18.56;75.77
14204;BME280;7185;51.854;6.622;2023-05-23T01:42:33;101436.53;;;18.54;75.43
14204;BME280;7185;51.854;6.622;2023-05-23T01:45:08;101434.44;;;18.64;75.80
14204;BME280;7185;51.854;6.622;2023-05-23T01:47:40;101442.06;;;18.50;75.56
14204;BME280;7185;51.854;6.622;2023-05-23T01:50:13;101445.72;;;18.69;74.88
14204;BME280;7185;51.854;6.622;2023-05-23T01:52:45;101444.38;;;18.35;76.08
14204;BME280;7185;51.854;6.622;2023-05-23T01:55:19;101444.13;;;18.41;75.66
14204;BME280;7185;51.854;6.622;2023-05-23T01:57:54;101446.53;;;18.00;76.59
14204;BME280;7185;51.854;6.622;2023-05-23T02:00:27;101444.97;;;17.93;77.08
14204;BME280;7185;51.854;6.622;2023-05-23T02:02:59;101452.00;;;17.95;76.55
14204;BME280;7185;51.854;6.622;2023-05-23T02:05:32;101449.66;;;18.11;76.40
14204;BME280;7185;51.854;6.622;2023-05-23T02:08:03;101455.09;;;17.81;77.06
14204;BME280;7185;51.854;6.622;2023-05-23T02:10:35;101454.66;;;17.94;76.19
14204;BME280;7185;51.854;6.622;2023-05-23T02:13:07;101446.22;;;17.82;76.53
14204;BME280;7185;51.854;6.622;2023-05-23T02:15:40;101445.81;;;17.95;76.15
14204;BME280;7185;51.854;6.622;2023-05-23T02:18:11;101452.84;;;17.96;76.66
14204;BME280;7185;51.854;6.622;2023-05-23T02:20:44;101455.75;;;17.88;76.51
14204;BME280;7185;51.854;6.622;2023-05-23T02:23:16;101458.19;;;17.94;76.48
14204;BME280;7185;51.854;6.622;2023-05-23T02:25:47;101448.47;;;17.68;77.24
14204;BME280;7185;51.854;6.622;2023-05-23T02:28:19;101455.53;;;17.69;77.63
14204;BME280;7185;51.854;6.622;2023-05-23T02:30:52;101452.44;;;17.81;77.18
14204;BME280;7185;51.854;6.622;2023-05-23T02:33:24;101455.44;;;17.72;77.66
14204;BME280;7185;51.854;6.622;2023-05-23T02:35:55;101458.66;;;17.80;77.72
14204;BME280;7185;51.854;6.622;2023-05-23T02:38:27;101463.06;;;17.55;79.09
14204;BME280;7185;51.854;6.622;2023-05-23T02:41:00;101466.50;;;17.58;79.13
14204;BME280;7185;51.854;6.622;2023-05-23T02:43:32;101469.28;;;17.53;79.49
14204;BME280;7185;51.854;6.622;2023-05-23T02:46:06;101471.53;;;17.39;80.09
14204;BME280;7185;51.854;6.622;2023-05-23T02:48:37;101469.09;;;17.60;79.54
14204;BME280;7185;51.854;6.622;2023-05-23T02:51:09;101459.09;;;17.68;79.10
14204;BME280;7185;51.854;6.622;2023-05-23T02:53:42;101474.09;;;17.69;79.12
14204;BME280;7185;51.854;6.622;2023-05-23T02:56:14;101470.47;;;17.72;78.80
14204;BME280;7185;51.854;6.622;2023-05-23T02:58:45;101473.03;;;17.73;79.14
14204;BME280;7185;51.854;6.622;2023-05-23T03:01:19;101478.34;;;17.73;79.17
14204;BME280;7185;51.854;6.622;2023-05-23T03:03:50;101474.16;;;17.66;79.58
14204;BME280;7185;51.854;6.622;2023-05-23T03:06:22;101481.44;;;17.61;79.69
14204;BME280;7185;51.854;6.622;2023-05-23T03:08:54;101480.44;;;17.63;79.79
14204;BME280;7185;51.854;6.622;2023-05-23T03:11:26;101477.59;;;17.69;79.45
14204;BME280;7185;51.854;6.622;2023-05-23T03:13:59;101483.78;;;17.70;79.32
14204;BME280;7185;51.854;6.622;2023-05-23T03:16:32;101484.00;;;17.64;79.54
14204;BME280;7185;51.854;6.622;2023-05-23T03:19:03;101492.97;;;17.85;78.81
14204;BME280;7185;51.854;6.622;2023-05-23T03:21:35;101490.16;;;17.90;78.53
14204;BME280;7185;51.854;6.622;2023-05-23T03:24:06;101491.31;;;17.82;78.92
14204;BME280;7185;51.854;6.622;2023-05-23T03:26:38;101489.09;;;17.70;79.04
14204;BME280;7185;51.854;6.622;2023-05-23T03:29:10;101499.56;;;17.73;79.50
14204;BME280;7185;51.854;6.622;2023-05-23T03:31:43;101498.47;;;17.53;80.49
14204;BME280;7185;51.854;6.622;2023-05-23T03:34:15;101491.00;;;17.38;80.78
14204;BME280;7185;51.854;6.622;2023-05-23T03:36:47;101499.13;;;17.60;80.20
14204;BME280;7185;51.854;6.622;2023-05-23T03:39:18;101497.75;;;17.75;79.50
14204;BME280;7185;51.854;6.622;2023-05-23T03:41:50;101501.44;;;17.71;79.73
14204;BME280;7185;51.854;6.622;2023-05-23T03:44:22;101496.22;;;17.41;80.52
14204;BME280;7185;51.854;6.622;2023-05-23T03:46:55;101514.69;;;17.44;80.66
14204;BME280;7185;51.854;6.622;2023-05-23T03:49:26;101507.72;;;17.40;80.80
14204;BME280;7185;51.854;6.622;2023-05-23T03:51:58;101513.25;;;17.34;80.99
14204;BME280;7185;51.854;6.622;2023-05-23T03:54:30;101521.13;;;17.35;81.37
14204;BME280;7185;51.854;6.622;2023-05-23T03:57:01;101520.34;;;17.60;80.10
14204;BME280;7185;51.854;6.622;2023-05-23T03:59:33;101523.56;;;17.70;79.41
14204;BME280;7185;51.854;6.622;2023-05-23T04:02:06;101525.31;;;17.69;79.57
14204;BME280;7185;51.854;6.622;2023-05-23T04:04:38;101531.41;;;17.73;79.66
14204;BME280;7185;51.854;6.622;2023-05-23T04:07:10;101530.00;;;17.34;81.37
14204;BME280;7185;51.854;6.622;2023-05-23T04:09:41;101527.31;;;17.36;81.21
14204;BME280;7185;51.854;6.622;2023-05-23T04:12:13;101520.75;;;17.19;81.83
14204;BME280;7185;51.854;6.622;2023-05-23T04:14:45;101521.03;;;17.10;82.25
14204;BME280;7185;51.854;6.622;2023-05-23T04:17:21;101537.81;;;17.39;81.49
14204;BME280;7185;51.854;6.622;2023-05-23T04:19:53;101532.03;;;17.26;81.83
14204;BME280;7185;51.854;6.622;2023-05-23T04:22:24;101533.03;;;17.50;80.64
14204;BME280;7185;51.854;6.622;2023-05-23T04:24:56;101538.44;;;17.47;80.37
14204;BME280;7185;51.854;6.622;2023-05-23T04:27:28;101541.41;;;17.36;81.06
14204;BME280;7185;51.854;6.622;2023-05-23T04:30:00;101544.78;;;17.42;80.75
14204;BME280;7185;51.854;6.622;2023-05-23T04:32:37;101553.44;;;17.48;80.76
14204;BME280;7185;51.854;6.622;2023-05-23T04:35:10;101556.66;;;17.30;81.11
14204;BME280;7185;51.854;6.622;2023-05-23T04:37:41;101557.38;;;17.35;80.46
14204;BME280;7185;51.854;6.622;2023-05-23T04:40:14;101556.41;;;17.38;80.27
14204;BME280;7185;51.854;6.622;2023-05-23T04:42:46;101559.00;;;17.41;79.81
14204;BME280;7185;51.854;6.622;2023-05-23T04:45:17;101562.28;;;17.47;80.08
14204;BME280;7185;51.854;6.622;2023-05-23T04:47:51;101568.06;;;17.32;80.29
14204;BME280;7185;51.854;6.622;2023-05-23T04:50:24;101565.00;;;17.46;79.75
14204;BME280;7185;51.854;6.622;2023-05-23T04:52:55;101564.16;;;17.44;79.27
14204;BME280;7185;51.854;6.622;2023-05-23T04:55:35;101562.22;;;17.49;79.20
14204;BME280;7185;51.854;6.622;2023-05-23T04:58:16;101571.81;;;17.25;79.28
14204;BME280;7185;51.854;6.622;2023-05-23T05:00:49;101580.78;;;17.20;79.87
14204;BME280;7185;51.854;6.622;2023-05-23T05:03:22;101577.25;;;17.22;80.04
14204;BME280;7185;51.854;6.622;2023-05-23T05:05:55;101565.72;;;17.23;79.89
14204;BME280;7185;51.854;6.622;2023-05-23T05:08:27;101572.72;;;17.25;79.88
14204;BME280;7185;51.854;6.622;2023-05-23T05:10:59;101576.38;;;17.49;78.67
14204;BME280;7185;51.854;6.622;2023-05-23T05:13:30;101581.25;;;17.35;79.12
14204;BME280;7185;51.854;6.622;2023-05-23T05:16:02;101586.09;;;17.49;78.59
14204;BME280;7185;51.854;6.622;2023-05-23T05:18:36;101592.03;;;17.57;77.84
14204;BME280;7185;51.854;6.622;2023-05-23T05:21:08;101592.91;;;17.58;78.06
14204;BME280;7185;51.854;6.622;2023-05-23T05:23:39;101595.16;;;17.70;77.31
14204;BME280;7185;51.854;6.622;2023-05-23T05:26:11;101600.47;;;17.70;77.56
14204;BME280;7185;51.854;6.622;2023-05-23T05:28:43;101604.31;;;17.60;77.12
14204;BME280;7185;51.854;6.622;2023-05-23T05:31:14;101601.81;;;17.83;76.17
14204;BME280;7185;51.854;6.622;2023-05-23T05:33:47;101607.19;;;17.80;76.04
14204;BME280;7185;51.854;6.622;2023-05-23T05:36:20;101616.53;;;17.65;76.63
14204;BME280;7185;51.854;6.622;2023-05-23T05:38:52;101620.44;;;17.82;75.63
14204;BME280;7185;51.854;6.622;2023-05-23T05:41:23;101624.19;;;17.46;76.12
14204;BME280;7185;51.854;6.622;2023-05-23T05:44:01;101622.88;;;17.31;76.97
14204;BME280;7185;51.854;6.622;2023-05-23T05:46:35;101632.31;;;17.40;76.75
14204;BME280;7185;51.854;6.622;2023-05-23T05:49:11;101634.69;;;17.49;76.60
14204;BME280;7185;51.854;6.622;2023-05-23T05:51:42;101622.88;;;17.60;76.42
14204;BME280;7185;51.854;6.622;2023-05-23T05:54:14;101626.63;;;17.52;76.42
14204;BME280;7185;51.854;6.622;2023-05-23T05:56:46;101633.69;;;17.53;75.50
14204;BME280;7185;51.854;6.622;2023-05-23T05:59:17;101639.09;;;17.50;75.94
14204;BME280;7185;51.854;6.622;2023-05-23T06:01:50;101653.97;;;17.55;75.56
14204;BME280;7185;51.854;6.622;2023-05-23T06:04:23;101659.47;;;17.48;75.27
14204;BME280;7185;51.854;6.622;2023-05-23T06:06:55;101660.13;;;17.55;74.81
14204;BME280;7185;51.854;6.622;2023-05-23T06:09:27;101657.91;;;17.11;75.86
14204;BME280;7185;51.854;6.622;2023-05-23T06:11:59;101665.19;;;17.03;76.20
14204;BME280;7185;51.854;6.622;2023-05-23T06:14:32;101670.97;;;17.17;75.83
14204;BME280;7185;51.854;6.622;2023-05-23T06:17:07;101671.06;;;17.14;75.91
14204;BME280;7185;51.854;6.622;2023-05-23T06:19:47;101674.22;;;16.96;76.14
14204;BME280;7185;51.854;6.622;2023-05-23T06:22:19;101676.56;;;17.08;76.04
14204;BME280;7185;51.854;6.622;2023-05-23T06:24:50;101681.75;;;17.11;75.92
14204;BME280;7185;51.854;6.622;2023-05-23T06:27:22;101685.41;;;17.07;75.64
14204;BME280;7185;51.854;6.622;2023-05-23T06:29:54;101681.56;;;17.17;75.90
14204;BME280;7185;51.854;6.622;2023-05-23T06:32:25;101683.13;;;17.25;75.85
14204;BME280;7185;51.854;6.622;2023-05-23T06:34:58;101689.16;;;17.00;76.41
14204;BME280;7185;51.854;6.622;2023-05-23T06:37:30;101693.25;;;17.10;75.59
14204;BME280;7185;51.854;6.622;2023-05-23T06:40:05;101692.22;;;16.83;76.02
14204;BME280;7185;51.854;6.622;2023-05-23T06:42:37;101692.47;;;16.73;77.09
14204;BME280;7185;51.854;6.622;2023-05-23T06:45:09;101697.13;;;16.64;77.41
14204;BME280;7185;51.854;6.622;2023-05-23T06:47:41;101706.16;;;16.56;76.57
14204;BME280;7185;51.854;6.622;2023-05-23T06:50:16;101714.25;;;16.50;77.64
14204;BME280;7185;51.854;6.622;2023-05-23T06:52:49;101715.38;;;16.40;77.42
14204;BME280;7185;51.854;6.622;2023-05-23T06:55:21;101714.09;;;16.20;78.48
14204;BME280;7185;51.854;6.622;2023-05-23T06:57:53;101721.50;;;16.42;78.28
14204;BME280;7185;51.854;6.622;2023-05-23T07:00:26;101719.34;;;16.22;78.06
14204;BME280;7185;51.854;6.622;2023-05-23T07:02:57;101721.81;;;16.30;77.71
14204;BME280;7185;51.854;6.622;2023-05-23T07:05:33;101723.09;;;16.13;78.38
14204;BME280;7185;51.854;6.622;2023-05-23T07:08:06;101726.91;;;16.00;79.05
14204;BME280;7185;51.854;6.622;2023-05-23T07:10:39;101731.22;;;16.05;79.10
14204;BME280;7185;51.854;6.622;2023-05-23T07:13:11;101726.41;;;16.21;78.63
14204;BME280;7185;51.854;6.622;2023-05-23T07:15:43;101734.25;;;15.88;79.57
14204;BME280;7185;51.854;6.622;2023-05-23T07:18:14;101739.44;;;16.29;78.04
14204;BME280;7185;51.854;6.622;2023-05-23T07:20:48;101741.25;;;15.89;79.19
14204;BME280;7185;51.854;6.622;2023-05-23T07:23:22;101743.53;;;16.05;78.99
14204;BME280;7185;51.854;6.622;2023-05-23T07:25:54;101745.16;;;16.12;78.20
14204;BME280;7185;51.854;6.622;2023-05-23T07:28:25;101748.28;;;15.90;78.59
14204;BME280;7185;51.854;6.622;2023-05-23T07:31:10;101753.56;;;16.30;78.14
14204;BME280;7185;51.854;6.622;2023-05-23T07:33:42;101750.78;;;15.98;78.08
14204;BME280;7185;51.854;6.622;2023-05-23T07:36:16;101761.16;;;16.06;77.12
14204;BME280;7185;51.854;6.622;2023-05-23T07:38:48;101752.13;;;16.15;77.12
14204;BME280;7185;51.854;6.622;2023-05-23T07:41:20;101762.00;;;16.08;77.42
14204;BME280;7185;51.854;6.622;2023-05-23T07:43:52;101771.31;;;16.26;76.46
14204;BME280;7185;51.854;6.622;2023-05-23T07:46:24;101766.16;;;16.18;76.24
14204;BME280;7185;51.854;6.622;2023-05-23T07:48:55;101777.78;;;16.11;75.99
14204;BME280;7185;51.854;6.622;2023-05-23T07:51:31;101780.19;;;16.23;75.03
14204;BME280;7185;51.854;6.622;2023-05-23T07:54:03;101767.63;;;15.92;75.39
14204;BME280;7185;51.854;6.622;2023-05-23T07:56:36;101772.38;;;16.17;75.45
14204;BME280;7185;51.854;6.622;2023-05-23T07:59:09;101768.31;;;16.40;73.81
14204;BME280;7185;51.854;6.622;2023-05-23T08:01:49;101779.69;;;16.44;73.64
14204;BME280;7185;51.854;6.622;2023-05-23T08:04:21;101776.78;;;16.54;73.05
14204;BME280;7185;51.854;6.622;2023-05-23T08:06:55;101782.63;;;16.31;74.48
14204;BME280;7185;51.854;6.622;2023-05-23T08:09:27;101786.94;;;16.37;73.94
14204;BME280;7185;51.854;6.622;2023-05-23T08:11:58;101797.91;;;16.18;74.52
14204;BME280;7185;51.854;6.622;2023-05-23T08:14:30;101795.16;;;16.23;73.90
14204;BME280;7185;51.854;6.622;2023-05-23T08:17:02;101806.31;;;15.97;74.58
14204;BME280;7185;51.854;6.622;2023-05-23T08:19:34;101810.00;;;15.89;74.82
14204;BME280;7185;51.854;6.622;2023-05-23T08:22:07;101810.75;;;15.96;74.65
14204;BME280;7185;51.854;6.622;2023-05-23T08:24:38;101817.16;;;15.86;75.00
14204;BME280;7185;51.854;6.622;2023-05-23T08:27:10;101824.16;;;15.88;74.55
14204;BME280;7185;51.854;6.622;2023-05-23T08:29:42;101820.81;;;15.77;74.49
14204;BME280;7185;51.854;6.622;2023-05-23T08:32:13;101815.53;;;15.77;73.90
14204;BME280;7185;51.854;6.622;2023-05-23T08:34:45;101826.75;;;15.90;73.90
14204;BME280;7185;51.854;6.622;2023-05-23T08:37:34;101821.97;;;16.09;72.94
14204;BME280;7185;51.854;6.622;2023-05-23T08:40:13;101825.38;;;16.14;72.67
14204;BME280;7185;51.854;6.622;2023-05-23T08:42:49;101838.00;;;16.00;71.28
14204;BME280;7185;51.854;6.622;2023-05-23T08:45:21;101829.41;;;16.31;70.12
14204;BME280;7185;51.854;6.622;2023-05-23T08:47:54;101832.78;;;16.37;69.65
14204;BME280;7185;51.854;6.622;2023-05-23T08:50:29;101832.63;;;16.45;68.22
14204;BME280;7185;51.854;6.622;2023-05-23T08:53:03;101834.19;;;16.90;66.93
14204;BME280;7185;51.854;6.622;2023-05-23T08:55:37;101831.53;;;16.90;65.82
14204;BME280;7185;51.854;6.622;2023-05-23T08:58:10;101832.88;;;17.08;65.31
14204;BME280;7185;51.854;6.622;2023-05-23T09:00:42;101837.00;;;17.53;64.35
14204;BME280;7185;51.854;6.622;2023-05-23T09:03:16;101835.31;;;17.80;62.58
14204;BME280;7185;51.854;6.622;2023-05-23T09:05:48;101836.72;;;18.25;60.58
14204;BME280;7185;51.854;6.622;2023-05-23T09:08:26;101839.47;;;17.91;60.42
14204;BME280;7185;51.854;6.622;2023-05-23T09:11:06;101836.41;;;17.75;61.09
14204;BME280;7185;51.854;6.622;2023-05-23T09:13:53;101834.47;;;18.11;59.69
14204;BME280;7185;51.854;6.622;2023-05-23T09:16:33;101838.66;;;18.19;59.65
14204;BME280;7185;51.854;6.622;2023-05-23T09:19:10;101839.94;;;18.35;59.59
14204;BME280;7185;51.854;6.622;2023-05-23T09:21:43;101850.19;;;18.18;59.45
14204;BME280;7185;51.854;6.622;2023-05-23T09:24:16;101850.66;;;18.02;59.32
14204;BME280;7185;51.854;6.622;2023-05-23T09:26:49;101856.69;;;17.44;61.19
14204;BME280;7185;51.854;6.622;2023-05-23T09:29:32;101868.38;;;17.37;61.85
14204;BME280;7185;51.854;6.622;2023-05-23T09:32:10;101866.53;;;17.39;61.25
14204;BME280;7185;51.854;6.622;2023-05-23T09:35:07;101862.81;;;17.78;60.97
14204;BME280;7185;51.854;6.622;2023-05-23T09:37:42;101857.25;;;17.87;61.13
14204;BME280;7185;51.854;6.622;2023-05-23T09:40:17;101860.38;;;17.70;60.70
14204;BME280;7185;51.854;6.622;2023-05-23T09:42:50;101868.47;;;17.65;61.36
14204;BME280;7185;51.854;6.622;2023-05-23T09:45:29;101876.63;;;17.25;63.17
14204;BME280;7185;51.854;6.622;2023-05-23T09:48:03;101875.13;;;17.13;61.74
14204;BME280;7185;51.854;6.622;2023-05-23T09:50:35;101874.06;;;17.22;61.22
14204;BME280;7185;51.854;6.622;2023-05-23T09:53:06;101873.63;;;17.39;60.02
14204;BME280;7185;51.854;6.622;2023-05-23T09:55:41;101866.56;;;17.71;59.50
14204;BME280;7185;51.854;6.622;2023-05-23T09:58:13;101863.59;;;18.13;58.13
14204;BME280;7185;51.854;6.622;2023-05-23T10:00:47;101856.00;;;18.59;58.95
14204;BME280;7185;51.854;6.622;2023-05-23T10:03:23;101865.84;;;18.84;56.00
14204;BME280;7185;51.854;6.622;2023-05-23T10:05:59;101866.66;;;19.39;53.86
14204;BME280;7185;51.854;6.622;2023-05-23T10:08:35;101869.69;;;19.54;53.01
14204;BME280;7185;51.854;6.622;2023-05-23T10:14:31;101867.00;;;20.04;51.33
14204;BME280;7185;51.854;6.622;2023-05-23T10:17:07;101873.09;;;19.83;52.21
14204;BME280;7185;51.854;6.622;2023-05-23T10:19:43;101880.41;;;20.01;51.88
14204;BME280;7185;51.854;6.622;2023-05-23T10:22:18;101874.94;;;20.06;51.23
14204;BME280;7185;51.854;6.622;2023-05-23T10:24:51;101877.47;;;19.60;51.47
14204;BME280;7185;51.854;6.622;2023-05-23T10:27:26;101881.06;;;19.84;51.05
14204;BME280;7185;51.854;6.622;2023-05-23T10:29:58;101887.19;;;19.86;51.69
14204;BME280;7185;51.854;6.622;2023-05-23T10:32:31;101891.41;;;19.92;51.08
14204;BME280;7185;51.854;6.622;2023-05-23T10:35:08;101880.50;;;20.00;51.29
14204;BME280;7185;51.854;6.622;2023-05-23T10:37:48;101881.56;;;19.43;51.43
14204;BME280;7185;51.854;6.622;2023-05-23T10:40:30;101883.25;;;19.71;51.36
14204;BME280;7185;51.854;6.622;2023-05-23T10:43:15;101879.72;;;19.96;51.45
14204;BME280;7185;51.854;6.622;2023-05-23T10:45:48;101893.44;;;20.33;50.11
14204;BME280;7185;51.854;6.622;2023-05-23T10:48:31;101879.59;;;20.47;49.11
14204;BME280;7185;51.854;6.622;2023-05-23T10:51:06;101873.78;;;21.04;47.76
14204;BME280;7185;51.854;6.622;2023-05-23T10:53:39;101879.22;;;21.00;46.78
14204;BME280;7185;51.854;6.622;2023-05-23T10:56:18;101881.78;;;21.45;44.37
14204;BME280;7185;51.854;6.622;2023-05-23T10:58:53;101883.66;;;21.22;44.19
14204;BME280;7185;51.854;6.622;2023-05-23T11:01:25;101879.03;;;21.26;44.59
14204;BME280;7185;51.854;6.622;2023-05-23T11:04:04;101879.13;;;21.65;43.97
14204;BME280;7185;51.854;6.622;2023-05-23T11:06:38;101873.44;;;21.53;43.79
14204;BME280;7185;51.854;6.622;2023-05-23T11:09:13;101876.03;;;21.54;44.41
14204;BME280;7185;51.854;6.622;2023-05-23T11:11:55;101868.41;;;21.86;43.82
14204;BME280;7185;51.854;6.622;2023-05-23T11:17:31;101869.16;;;22.09;41.27
14204;BME280;7185;51.854;6.622;2023-05-23T11:20:06;101871.19;;;22.42;41.16
14204;BME280;7185;51.854;6.622;2023-05-23T11:22:52;101865.75;;;22.24;41.48
14204;BME280;7185;51.854;6.622;2023-05-23T11:25:38;101869.00;;;22.31;41.56
14204;BME280;7185;51.854;6.622;2023-05-23T11:28:11;101867.66;;;22.78;41.06
14204;BME280;7185;51.854;6.622;2023-05-23T11:30:47;101871.03;;;23.18;38.90
14204;BME280;7185;51.854;6.622;2023-05-23T11:33:19;101868.53;;;22.42;40.25
14204;BME280;7185;51.854;6.622;2023-05-23T11:35:51;101877.47;;;23.14;40.48
14204;BME280;7185;51.854;6.622;2023-05-23T11:38:23;101874.06;;;23.11;38.99
14204;BME280;7185;51.854;6.622;2023-05-23T11:40:55;101869.59;;;23.46;38.28
14204;BME280;7185;51.854;6.622;2023-05-23T11:43:27;101881.06;;;23.13;37.12
14204;BME280;7185;51.854;6.622;2023-05-23T11:46:08;101866.28;;;23.06;37.93
14204;BME280;7185;51.854;6.622;2023-05-23T11:48:45;101857.31;;;23.42;36.46
14204;BME280;7185;51.854;6.622;2023-05-23T11:51:16;101875.34;;;23.72;36.50
14204;BME280;7185;51.854;6.622;2023-05-23T11:53:49;101856.88;;;23.67;36.01
14204;BME280;7185;51.854;6.622;2023-05-23T11:56:21;101865.25;;;24.11;35.98
14204;BME280;7185;51.854;6.622;2023-05-23T11:58:56;101866.31;;;24.24;34.52
14204;BME280;7185;51.854;6.622;2023-05-23T12:01:35;101863.72;;;24.23;36.07
14204;BME280;7185;51.854;6.622;2023-05-23T12:04:10;101860.38;;;24.35;34.05
14204;BME280;7185;51.854;6.622;2023-05-23T12:06:45;101857.13;;;24.44;34.76
14204;BME280;7185;51.854;6.622;2023-05-23T12:09:17;101860.97;;;24.40;34.51
14204;BME280;7185;51.854;6.622;2023-05-23T12:11:49;101862.31;;;24.15;35.93
14204;BME280;7185;51.854;6.622;2023-05-23T12:14:21;101871.88;;;23.54;36.12
14204;BME280;7185;51.854;6.622;2023-05-23T12:16:54;101867.53;;;23.51;37.78
14204;BME280;7185;51.854;6.622;2023-05-23T12:19:27;101857.13;;;23.45;36.95
14204;BME280;7185;51.854;6.622;2023-05-23T12:22:04;101868.72;;;23.11;37.86
14204;BME280;7185;51.854;6.622;2023-05-23T12:24:46;101868.47;;;22.98;37.95
14204;BME280;7185;51.854;6.622;2023-05-23T12:27:18;101862.16;;;23.16;37.16
14204;BME280;7185;51.854;6.622;2023-05-23T12:29:51;101867.81;;;22.75;37.30
14204;BME280;7185;51.854;6.622;2023-05-23T12:32:25;101865.94;;;22.77;37.05
14204;BME280;7185;51.854;6.622;2023-05-23T12:34:57;101863.09;;;23.17;36.82
14204;BME280;7185;51.854;6.622;2023-05-23T12:37:31;101867.69;;;23.48;35.71
14204;BME280;7185;51.854;6.622;2023-05-23T12:40:11;101870.84;;;23.39;35.84
14204;BME280;7185;51.854;6.622;2023-05-23T12:42:50;101871.97;;;23.17;34.52
14204;BME280;7185;51.854;6.622;2023-05-23T12:45:25;101864.09;;;23.49;35.33
14204;BME280;7185;51.854;6.622;2023-05-23T12:48:05;101873.38;;;23.42;35.28
14204;BME280;7185;51.854;6.622;2023-05-23T12:50:38;101876.63;;;23.65;34.92
14204;BME280;7185;51.854;6.622;2023-05-23T12:53:13;101874.59;;;23.52;34.97
14204;BME280;7185;51.854;6.622;2023-05-23T12:55:45;101872.44;;;23.26;35.54
14204;BME280;7185;51.854;6.622;2023-05-23T12:58:17;101868.97;;;23.41;35.53
14204;BME280;7185;51.854;6.622;2023-05-23T13:00:49;101873.03;;;23.13;35.76
14204;BME280;7185;51.854;6.622;2023-05-23T13:03:23;101876.66;;;23.12;35.87
14204;BME280;7185;51.854;6.622;2023-05-23T13:05:55;101872.25;;;22.94;36.60
14204;BME280;7185;51.854;6.622;2023-05-23T13:08:27;101866.28;;;23.06;36.63
14204;BME280;7185;51.854;6.622;2023-05-23T13:10:59;101873.69;;;23.01;35.65
14204;BME280;7185;51.854;6.622;2023-05-23T13:13:31;101874.22;;;23.07;36.68
14204;BME280;7185;51.854;6.622;2023-05-23T13:16:03;101874.97;;;22.92;35.23
14204;BME280;7185;51.854;6.622;2023-05-23T13:18:40;101869.31;;;22.44;36.14
14204;BME280;7185;51.854;6.622;2023-05-23T13:21:12;101877.69;;;22.55;35.88
14204;BME280;7185;51.854;6.622;2023-05-23T13:23:44;101879.34;;;22.39;36.51
14204;BME280;7185;51.854;6.622;2023-05-23T13:26:16;101875.16;;;22.14;36.98
14204;BME280;7185;51.854;6.622;2023-05-23T13:28:47;101878.66;;;22.72;36.93
14204;BME280;7185;51.854;6.622;2023-05-23T13:31:19;101884.75;;;22.56;37.91
14204;BME280;7185;51.854;6.622;2023-05-23T13:33:52;101882.44;;;22.49;37.14
14204;BME280;7185;51.854;6.622;2023-05-23T13:36:24;101882.00;;;22.58;37.17
14204;BME280;7185;51.854;6.622;2023-05-23T13:38:55;101879.44;;;22.74;37.41
14204;BME280;7185;51.854;6.622;2023-05-23T13:41:27;101880.69;;;23.21;36.52